createdAt,value
2016-11-14T00:00:55.524Z,0.85
2016-11-14T00:02:04.212Z,0.86
2016-11-14T00:03:12.909Z,0.88
2016-11-14T00:04:21.598Z,0.89
2016-11-14T00:05:30.327Z,0.94
2016-11-14T00:06:39.028Z,1.03
2016-11-14T00:07:47.718Z,0.99
2016-11-14T00:08:56.410Z,1
2016-11-14T00:10:05.096Z,0.99
2016-11-14T00:11:14.099Z,0.91
2016-11-14T00:12:22.808Z,0.78
2016-11-14T00:13:31.497Z,0.68
2016-11-14T00:14:40.505Z,0.67
2016-11-14T00:15:49.193Z,0.66
2016-11-14T00:16:57.878Z,0.66
2016-11-14T00:18:06.568Z,0.49
2016-11-14T00:19:15.258Z,0.49
2016-11-14T00:20:23.948Z,0.51
2016-11-14T00:21:32.643Z,0.56
2016-11-14T00:22:41.332Z,0.73
2016-11-14T00:23:50.029Z,0.81
2016-11-14T00:24:58.721Z,0.74
2016-11-14T00:26:07.407Z,0.74
2016-11-14T00:27:16.100Z,0.71
2016-11-14T00:28:24.838Z,0.66
2016-11-14T00:29:33.524Z,0.68
2016-11-14T00:30:42.217Z,0.67
2016-11-14T00:31:50.921Z,0.55
2016-11-14T00:32:59.611Z,0.71
2016-11-14T00:34:08.300Z,0.61
2016-11-14T00:35:16.992Z,0.55
2016-11-14T00:36:25.680Z,0.49
2016-11-14T00:37:34.368Z,0.34
2016-11-14T00:38:43.060Z,0.27
2016-11-14T00:39:51.780Z,0.24
2016-11-14T00:41:00.474Z,0.2
2016-11-14T00:42:09.161Z,0.16
2016-11-14T00:43:17.846Z,0.2
2016-11-14T00:44:26.534Z,0.27
2016-11-14T00:45:35.230Z,0.24
2016-11-14T00:46:43.920Z,0.2
2016-11-14T00:47:52.604Z,0.27
2016-11-14T00:49:01.293Z,0.33
2016-11-14T00:50:09.985Z,0.47
2016-11-14T00:51:18.671Z,0.47
2016-11-14T00:52:27.361Z,0.59
2016-11-14T00:53:36.048Z,0.63
2016-11-14T00:54:44.734Z,0.59
2016-11-14T00:55:53.421Z,0.64
2016-11-14T00:57:02.115Z,0.68
2016-11-14T00:58:10.802Z,0.68
2016-11-14T00:59:19.490Z,0.74
2016-11-14T01:00:28.172Z,0.7
2016-11-14T01:01:36.865Z,0.59
2016-11-14T01:02:45.558Z,0.63
2016-11-14T01:03:54.245Z,0.47
2016-11-14T01:05:02.942Z,0.49
2016-11-14T01:06:11.636Z,0.44
2016-11-14T01:07:20.327Z,0.3
2016-11-14T01:08:29.013Z,0.34
2016-11-14T01:09:37.703Z,0.24
2016-11-14T01:10:46.393Z,0.24
2016-11-14T01:11:55.083Z,0.29
2016-11-14T01:13:03.795Z,0.2
2016-11-14T01:14:12.491Z,0.18
2016-11-14T01:15:21.181Z,0.23
2016-11-14T01:16:29.869Z,0.23
2016-11-14T01:17:38.558Z,0.09
2016-11-14T01:18:47.256Z,0.16
2016-11-14T01:19:55.952Z,0.26
2016-11-14T01:21:04.673Z,0.34
2016-11-14T01:22:13.362Z,0.3
2016-11-14T01:23:22.049Z,0.39
2016-11-14T01:24:30.741Z,0.37
2016-11-14T01:25:39.439Z,0.29
2016-11-14T01:26:48.128Z,0.39
2016-11-14T01:27:56.815Z,0.39
2016-11-14T01:29:05.516Z,0.39
2016-11-14T01:30:14.218Z,0.37
2016-11-14T01:31:22.912Z,0.42
2016-11-14T01:32:31.605Z,0.48
2016-11-14T01:33:40.297Z,0.47
2016-11-14T01:34:48.985Z,0.37
2016-11-14T01:35:57.686Z,0.59
2016-11-14T01:37:06.413Z,0.66
2016-11-14T01:38:15.117Z,0.68
2016-11-14T01:39:23.805Z,0.64
2016-11-14T01:40:32.499Z,0.66
2016-11-14T01:41:41.190Z,0.55
2016-11-14T01:42:49.883Z,0.56
2016-11-14T01:43:58.568Z,0.61
2016-11-14T01:45:07.259Z,0.67
2016-11-14T01:46:15.952Z,0.66
2016-11-14T01:47:24.641Z,0.49
2016-11-14T01:48:33.333Z,0.49
2016-11-14T01:49:42.028Z,0.49
2016-11-14T01:50:50.718Z,0.48
2016-11-14T01:51:59.409Z,0.52
2016-11-14T01:53:08.096Z,0.48
2016-11-14T01:54:16.788Z,0.59
2016-11-14T01:55:25.476Z,0.56
2016-11-14T01:56:34.164Z,0.56
2016-11-14T01:57:42.852Z,0.7
2016-11-14T01:58:51.541Z,0.63
2016-11-14T02:00:00.231Z,0.51
2016-11-14T02:01:08.924Z,0.49
2016-11-14T02:02:17.615Z,0.44
2016-11-14T02:03:26.311Z,0.44
2016-11-14T02:04:34.999Z,0.51
2016-11-14T02:05:43.690Z,0.39
2016-11-14T02:06:52.380Z,0.45
2016-11-14T02:08:01.072Z,0.44
2016-11-14T02:09:09.777Z,0.37
2016-11-14T02:10:18.788Z,0.49
2016-11-14T02:11:27.477Z,0.49
2016-11-14T02:12:36.173Z,0.48
2016-11-14T02:13:44.866Z,0.58
2016-11-14T02:14:53.557Z,0.71
2016-11-14T02:16:02.250Z,0.7
2016-11-14T02:17:10.944Z,0.67
2016-11-14T02:18:19.639Z,0.63
2016-11-14T02:19:28.330Z,0.52
2016-11-14T02:20:37.019Z,0.47
2016-11-14T02:21:45.709Z,0.51
2016-11-14T02:22:54.404Z,0.51
2016-11-14T02:24:03.093Z,0.51
2016-11-14T02:25:11.785Z,0.61
2016-11-14T02:26:20.786Z,0.52
2016-11-14T02:27:29.473Z,0.66
2016-11-14T02:28:38.167Z,0.59
2016-11-14T02:29:46.861Z,0.67
2016-11-14T02:30:55.549Z,0.67
2016-11-14T02:32:04.243Z,0.59
2016-11-14T02:33:12.936Z,0.55
2016-11-14T02:34:21.629Z,0.51
2016-11-14T02:35:30.369Z,0.45
2016-11-14T02:36:39.058Z,0.51
2016-11-14T02:37:47.744Z,0.51
2016-11-14T02:38:56.435Z,0.48
2016-11-14T02:40:05.132Z,0.52
2016-11-14T02:41:14.132Z,0.55
2016-11-14T02:42:22.855Z,0.58
2016-11-14T02:43:31.582Z,0.61
2016-11-14T02:44:40.267Z,0.58
2016-11-14T02:45:49.268Z,0.64
2016-11-14T02:46:57.964Z,0.73
2016-11-14T02:48:06.654Z,0.68
2016-11-14T02:49:15.350Z,0.76
2016-11-14T02:50:24.037Z,0.78
2016-11-14T02:51:32.756Z,0.91
2016-11-14T02:52:41.447Z,0.78
2016-11-14T02:53:50.136Z,0.81
2016-11-14T02:54:58.820Z,0.7
2016-11-14T02:56:07.513Z,0.77
2016-11-14T02:57:16.201Z,0.78
2016-11-14T02:58:24.897Z,0.81
2016-11-14T02:59:33.591Z,0.88
2016-11-14T03:00:42.277Z,0.85
2016-11-14T03:01:50.970Z,0.99
2016-11-14T03:02:59.655Z,1.03
2016-11-14T03:04:08.351Z,1
2016-11-14T03:05:17.042Z,1
2016-11-14T03:06:25.733Z,1.1
2016-11-14T03:07:34.422Z,1.2
2016-11-14T03:08:43.120Z,1.09
2016-11-14T03:09:51.863Z,1.09
2016-11-14T03:11:00.552Z,0.99
2016-11-14T03:12:09.275Z,1
2016-11-14T03:13:17.961Z,0.99
2016-11-14T03:14:26.653Z,0.95
2016-11-14T03:15:35.449Z,0.92
2016-11-14T03:16:44.136Z,0.92
2016-11-14T03:17:52.820Z,1
2016-11-14T03:19:01.509Z,0.99
2016-11-14T03:20:10.198Z,1.03
2016-11-14T03:21:18.889Z,1.07
2016-11-14T03:22:27.581Z,1.07
2016-11-14T03:23:36.270Z,1.02
2016-11-14T03:24:44.960Z,0.95
2016-11-14T03:25:53.644Z,0.84
2016-11-14T03:27:02.335Z,0.81
2016-11-14T03:28:11.019Z,0.74
2016-11-14T03:29:19.700Z,0.71
2016-11-14T03:30:28.386Z,0.67
2016-11-14T03:31:37.078Z,0.7
2016-11-14T03:32:45.766Z,0.67
2016-11-14T03:33:54.487Z,0.76
2016-11-14T03:35:03.176Z,0.76
2016-11-14T03:36:11.859Z,0.85
2016-11-14T03:37:20.547Z,0.85
2016-11-14T03:38:29.236Z,0.81
2016-11-14T03:39:37.920Z,0.76
2016-11-14T03:40:46.612Z,0.91
2016-11-14T03:41:55.334Z,0.91
2016-11-14T03:43:04.024Z,0.91
2016-11-14T03:44:12.714Z,0.95
2016-11-14T03:45:21.413Z,1
2016-11-14T03:46:30.101Z,1.1
2016-11-14T03:47:38.793Z,1.14
2016-11-14T03:48:47.483Z,1.2
2016-11-14T03:49:56.205Z,1.18
2016-11-14T03:51:04.893Z,1.2
2016-11-14T03:52:13.583Z,1.21
2016-11-14T03:53:22.277Z,1.07
2016-11-14T03:54:30.975Z,0.96
2016-11-14T03:55:39.666Z,1.07
2016-11-14T03:56:48.357Z,1.09
2016-11-14T03:57:57.048Z,1.12
2016-11-14T03:59:05.743Z,1.06
2016-11-14T04:00:14.437Z,1.04
2016-11-14T04:01:23.126Z,1.13
2016-11-14T04:02:31.819Z,1.21
2016-11-14T04:03:40.820Z,1.21
2016-11-14T04:04:49.512Z,1.2
2016-11-14T04:05:58.224Z,1.31
2016-11-14T04:07:06.927Z,1.34
2016-11-14T04:08:15.618Z,1.36
2016-11-14T04:09:24.309Z,1.38
2016-11-14T04:10:33.000Z,1.22
2016-11-14T04:11:41.690Z,1.18
2016-11-14T04:12:50.420Z,1.14
2016-11-14T04:13:59.108Z,1.04
2016-11-14T04:15:07.797Z,1.06
2016-11-14T04:16:16.483Z,1.04
2016-11-14T04:17:25.175Z,1.03
2016-11-14T04:18:33.866Z,1.02
2016-11-14T04:19:42.595Z,0.84
2016-11-14T04:20:51.286Z,0.85
2016-11-14T04:21:59.983Z,0.86
2016-11-14T04:23:08.677Z,0.76
2016-11-14T04:24:17.372Z,0.71
2016-11-14T04:25:26.060Z,0.68
2016-11-14T04:26:34.750Z,0.84
2016-11-14T04:27:43.444Z,0.73
2016-11-14T04:28:52.134Z,0.76
2016-11-14T04:30:00.825Z,0.84
2016-11-14T04:31:09.510Z,0.84
2016-11-14T04:32:18.200Z,0.89
2016-11-14T04:33:26.887Z,1.03
2016-11-14T04:34:35.576Z,0.95
2016-11-14T04:35:44.268Z,1.04
2016-11-14T04:36:52.955Z,1.02
2016-11-14T04:38:01.640Z,0.96
2016-11-14T04:39:10.338Z,1
2016-11-14T04:40:19.026Z,1.02
2016-11-14T04:41:28.071Z,0.95
2016-11-14T04:42:36.765Z,1.06
2016-11-14T04:43:45.491Z,0.99
2016-11-14T04:44:54.179Z,0.91
2016-11-14T04:46:02.865Z,0.94
2016-11-14T04:47:11.554Z,0.78
2016-11-14T04:48:20.253Z,0.85
2016-11-14T04:49:28.973Z,0.82
2016-11-14T04:50:37.658Z,0.82
2016-11-14T04:51:46.351Z,0.82
2016-11-14T04:52:55.037Z,0.78
2016-11-14T04:54:03.723Z,0.99
2016-11-14T04:55:12.407Z,0.94
2016-11-14T04:56:21.101Z,0.88
2016-11-14T04:57:29.792Z,0.91
2016-11-14T04:58:38.480Z,0.88
2016-11-14T04:59:47.170Z,0.89
2016-11-14T05:00:55.866Z,0.82
2016-11-14T05:02:04.561Z,0.82
2016-11-14T05:03:13.247Z,0.99
2016-11-14T05:04:21.941Z,1.04
2016-11-14T05:05:30.631Z,1.14
2016-11-14T05:06:39.325Z,1.13
2016-11-14T05:07:48.022Z,1.18
2016-11-14T05:08:56.714Z,1.2
2016-11-14T05:10:05.722Z,1.24
2016-11-14T05:11:14.412Z,1.21
2016-11-14T05:12:23.106Z,1.22
2016-11-14T05:13:31.800Z,1.22
2016-11-14T05:14:40.486Z,1.2
2016-11-14T05:15:49.215Z,1.07
2016-11-14T05:16:57.912Z,1.13
2016-11-14T05:18:06.603Z,1.06
2016-11-14T05:19:15.295Z,1.06
2016-11-14T05:20:24.007Z,0.94
2016-11-14T05:21:32.697Z,0.89
2016-11-14T05:22:41.390Z,0.88
2016-11-14T05:23:50.080Z,0.81
2016-11-14T05:24:58.773Z,0.68
2016-11-14T05:26:07.465Z,0.73
2016-11-14T05:27:16.156Z,0.66
2016-11-14T05:28:24.846Z,0.67
2016-11-14T05:29:33.543Z,0.71
2016-11-14T05:30:42.234Z,0.7
2016-11-14T05:31:50.928Z,0.73
2016-11-14T05:32:59.615Z,0.82
2016-11-14T05:34:08.303Z,0.94
2016-11-14T05:35:16.997Z,0.84
2016-11-14T05:36:25.725Z,0.86
2016-11-14T05:37:34.447Z,0.91
2016-11-14T05:38:43.139Z,0.78
2016-11-14T05:39:51.864Z,0.94
2016-11-14T05:41:00.554Z,0.85
2016-11-14T05:42:09.244Z,0.84
2016-11-14T05:43:17.933Z,0.91
2016-11-14T05:44:26.668Z,0.82
2016-11-14T05:45:35.355Z,0.85
2016-11-14T05:46:44.081Z,0.92
2016-11-14T05:47:52.782Z,0.77
2016-11-14T05:49:01.471Z,0.89
2016-11-14T05:50:10.159Z,0.96
2016-11-14T05:51:18.850Z,1
2016-11-14T05:52:27.543Z,0.96
2016-11-14T05:53:36.235Z,0.99
2016-11-14T05:54:44.953Z,0.99
2016-11-14T05:55:53.644Z,1.06
2016-11-14T05:57:02.335Z,1.09
2016-11-14T05:58:11.026Z,1.09
2016-11-14T05:59:19.717Z,1.12
2016-11-14T06:00:28.412Z,1.09
2016-11-14T06:01:37.103Z,1.12
2016-11-14T06:02:45.800Z,1.14
2016-11-14T06:03:54.493Z,1.14
2016-11-14T06:05:03.188Z,1.06
2016-11-14T06:06:11.888Z,1.09
2016-11-14T06:07:20.584Z,1.09
2016-11-14T06:08:29.274Z,1.09
2016-11-14T06:09:38.020Z,1.09
2016-11-14T06:10:46.708Z,1.22
2016-11-14T06:11:55.415Z,1.09
2016-11-14T06:13:04.105Z,1.16
2016-11-14T06:14:12.795Z,1.24
2016-11-14T06:15:21.480Z,1.18
2016-11-14T06:16:30.210Z,1.18
2016-11-14T06:17:39.252Z,1.21
2016-11-14T06:18:47.951Z,1.16
2016-11-14T06:19:56.645Z,1.21
2016-11-14T06:21:05.341Z,1.13
2016-11-14T06:22:14.028Z,1.21
2016-11-14T06:23:22.724Z,1.21
2016-11-14T06:24:31.421Z,1.16
2016-11-14T06:25:40.110Z,1.18
2016-11-14T06:26:48.800Z,1.24
2016-11-14T06:27:57.497Z,1.3
2016-11-14T06:29:06.186Z,1.27
2016-11-14T06:30:14.875Z,1.25
2016-11-14T06:31:23.564Z,1.32
2016-11-14T06:32:32.259Z,1.32
2016-11-14T06:33:40.952Z,1.36
2016-11-14T06:34:49.640Z,1.31
2016-11-14T06:35:58.328Z,1.31
2016-11-14T06:37:07.034Z,1.31
2016-11-14T06:38:15.724Z,1.4
2016-11-14T06:39:24.411Z,1.43
2016-11-14T06:40:33.106Z,1.46
2016-11-14T06:41:41.800Z,1.58
2016-11-14T06:42:50.487Z,1.67
2016-11-14T06:43:59.177Z,1.63
2016-11-14T06:45:07.874Z,1.6
2016-11-14T06:46:16.571Z,1.57
2016-11-14T06:47:25.317Z,1.48
2016-11-14T06:48:34.021Z,1.45
2016-11-14T06:49:42.709Z,1.36
2016-11-14T06:50:51.404Z,1.25
2016-11-14T06:52:00.099Z,1.14
2016-11-14T06:53:08.785Z,1.21
2016-11-14T06:54:17.477Z,1.13
2016-11-14T06:55:26.165Z,1.12
2016-11-14T06:56:34.856Z,1.04
2016-11-14T06:57:43.545Z,1
2016-11-14T06:58:52.245Z,1.06
2016-11-14T07:00:00.943Z,1.06
2016-11-14T07:01:09.637Z,1.06
2016-11-14T07:02:18.330Z,1.06
2016-11-14T07:03:27.024Z,1.12
2016-11-14T07:04:35.721Z,1.16
2016-11-14T07:05:44.730Z,1.14
2016-11-14T07:06:53.455Z,1.18
2016-11-14T07:08:02.152Z,1.18
2016-11-14T07:09:10.844Z,1.28
2016-11-14T07:10:19.541Z,1.22
2016-11-14T07:11:28.341Z,1.25
2016-11-14T07:12:37.134Z,1.32
2016-11-14T07:13:45.823Z,1.25
2016-11-14T07:14:54.517Z,1.34
2016-11-14T07:16:03.203Z,1.31
2016-11-14T07:17:11.975Z,1.32
2016-11-14T07:18:20.724Z,1.36
2016-11-14T07:19:29.431Z,1.38
2016-11-14T07:20:38.124Z,1.39
2016-11-14T07:21:46.822Z,1.38
2016-11-14T07:22:55.523Z,1.48
2016-11-14T07:24:04.214Z,1.52
2016-11-14T07:25:12.918Z,1.48
2016-11-14T07:26:21.603Z,1.53
2016-11-14T07:27:30.297Z,1.56
2016-11-14T07:28:38.990Z,1.57
2016-11-14T07:29:47.680Z,1.52
2016-11-14T07:30:56.372Z,1.52
2016-11-14T07:32:05.065Z,1.56
2016-11-14T07:33:13.753Z,1.64
2016-11-14T07:34:22.759Z,1.61
2016-11-14T07:35:31.548Z,1.68
2016-11-14T07:36:40.244Z,1.64
2016-11-14T07:37:48.951Z,1.6
2016-11-14T07:38:57.651Z,1.6
2016-11-14T07:40:06.345Z,1.7
2016-11-14T07:41:15.042Z,1.61
2016-11-14T07:42:23.741Z,1.7
2016-11-14T07:43:32.430Z,1.74
2016-11-14T07:44:41.122Z,1.85
2016-11-14T07:45:49.814Z,1.81
2016-11-14T07:46:58.506Z,1.81
2016-11-14T07:48:07.198Z,1.93
2016-11-14T07:49:15.894Z,1.86
2016-11-14T07:50:24.592Z,1.86
2016-11-14T07:51:33.300Z,1.88
2016-11-14T07:52:41.990Z,1.93
2016-11-14T07:53:50.682Z,1.85
2016-11-14T07:54:59.375Z,1.85
2016-11-14T07:56:08.148Z,1.82
2016-11-14T07:57:16.832Z,1.88
2016-11-14T07:58:25.518Z,1.81
2016-11-14T07:59:34.216Z,1.81
2016-11-14T08:00:42.906Z,1.92
2016-11-14T08:01:51.598Z,1.79
2016-11-14T08:03:00.287Z,1.76
2016-11-14T08:04:09.290Z,1.78
2016-11-14T08:05:17.986Z,1.84
2016-11-14T08:06:26.686Z,1.84
2016-11-14T08:07:35.376Z,1.86
2016-11-14T08:08:44.075Z,1.82
2016-11-14T08:09:52.778Z,1.84
2016-11-14T08:11:01.470Z,1.93
2016-11-14T08:12:10.167Z,1.95
2016-11-14T08:13:18.857Z,2.01
2016-11-14T08:14:27.553Z,1.98
2016-11-14T08:15:36.246Z,2
2016-11-14T08:16:44.940Z,2.04
2016-11-14T08:17:53.632Z,2.01
2016-11-14T08:19:02.325Z,2.12
2016-11-14T08:20:11.017Z,2.12
2016-11-14T08:21:19.711Z,2.12
2016-11-14T08:22:28.406Z,2.16
2016-11-14T08:23:37.101Z,2.28
2016-11-14T08:24:45.788Z,2.19
2016-11-14T08:25:54.509Z,2.26
2016-11-14T08:27:03.201Z,2.34
2016-11-14T08:28:11.893Z,2.4
2016-11-14T08:29:20.585Z,2.41
2016-11-14T08:30:29.277Z,2.47
2016-11-14T08:31:37.965Z,2.47
2016-11-14T08:32:46.654Z,2.52
2016-11-14T08:33:55.657Z,2.44
2016-11-14T08:35:04.349Z,2.46
2016-11-14T08:36:13.044Z,2.4
2016-11-14T08:37:21.737Z,2.34
2016-11-14T08:38:30.436Z,2.33
2016-11-14T08:39:39.775Z,2.3
2016-11-14T08:40:48.465Z,2.28
2016-11-14T08:41:57.157Z,2.33
2016-11-14T08:43:05.846Z,2.37
2016-11-14T08:44:14.538Z,2.22
2016-11-14T08:45:23.233Z,2.3
2016-11-14T08:46:31.926Z,2.33
2016-11-14T08:47:40.616Z,2.32
2016-11-14T08:48:49.305Z,2.34
2016-11-14T08:49:58.004Z,2.36
2016-11-14T08:51:06.697Z,2.34
2016-11-14T08:52:15.395Z,2.26
2016-11-14T08:53:24.090Z,2.33
2016-11-14T08:54:32.812Z,2.39
2016-11-14T08:55:41.505Z,2.44
2016-11-14T08:56:50.253Z,2.55
2016-11-14T08:57:58.946Z,2.62
2016-11-14T08:59:07.646Z,2.59
2016-11-14T09:00:16.339Z,2.68
2016-11-14T09:01:25.060Z,2.73
2016-11-14T09:02:33.760Z,2.73
2016-11-14T09:03:42.460Z,2.93
2016-11-14T09:04:51.168Z,2.85
2016-11-14T09:05:59.862Z,2.9
2016-11-14T09:07:08.565Z,3.11
2016-11-14T09:08:17.254Z,3.05
2016-11-14T09:09:25.947Z,3.12
2016-11-14T09:10:34.638Z,3.18
2016-11-14T09:11:43.333Z,3.21
2016-11-14T09:12:52.035Z,3.26
2016-11-14T09:14:00.725Z,3.34
2016-11-14T09:15:09.419Z,3.48
2016-11-14T09:16:18.427Z,3.46
2016-11-14T09:17:27.189Z,3.48
2016-11-14T09:18:35.882Z,3.58
2016-11-14T09:19:44.571Z,3.68
2016-11-14T09:20:53.263Z,3.68
2016-11-14T09:22:01.957Z,3.74
2016-11-14T09:23:10.651Z,3.74
2016-11-14T09:24:19.342Z,3.66
2016-11-14T09:25:28.031Z,3.7
2016-11-14T09:26:36.720Z,3.78
2016-11-14T09:27:45.411Z,3.76
2016-11-14T09:28:54.418Z,3.82
2016-11-14T09:30:03.111Z,3.76
2016-11-14T09:31:11.806Z,3.7
2016-11-14T09:32:20.503Z,3.67
2016-11-14T09:33:29.192Z,3.64
2016-11-14T09:34:37.911Z,3.56
2016-11-14T09:35:46.608Z,3.56
2016-11-14T09:36:55.302Z,3.59
2016-11-14T09:38:04.013Z,3.61
2016-11-14T09:39:12.709Z,3.61
2016-11-14T09:40:21.403Z,3.56
2016-11-14T09:41:30.096Z,3.59
2016-11-14T09:42:38.793Z,3.61
2016-11-14T09:43:47.526Z,3.61
2016-11-14T09:44:56.220Z,3.61
2016-11-14T09:46:04.914Z,3.7
2016-11-14T09:47:13.603Z,3.67
2016-11-14T09:48:22.298Z,3.77
2016-11-14T09:49:30.994Z,3.74
2016-11-14T09:50:39.685Z,3.77
2016-11-14T09:51:48.378Z,3.78
2016-11-14T09:52:57.428Z,3.78
2016-11-14T09:54:06.436Z,3.81
2016-11-14T09:55:15.128Z,3.82
2016-11-14T09:56:24.277Z,3.82
2016-11-14T09:57:32.967Z,3.82
2016-11-14T09:58:41.666Z,3.77
2016-11-14T09:59:50.396Z,3.78
2016-11-14T10:00:59.146Z,3.82
2016-11-14T10:02:07.840Z,3.78
2016-11-14T10:03:16.539Z,3.77
2016-11-14T10:04:25.234Z,3.76
2016-11-14T10:05:33.926Z,3.77
2016-11-14T10:06:42.618Z,3.84
2016-11-14T10:07:51.309Z,3.76
2016-11-14T10:09:00.029Z,3.74
2016-11-14T10:10:08.834Z,3.74
2016-11-14T10:11:17.523Z,3.82
2016-11-14T10:12:26.209Z,3.81
2016-11-14T10:13:34.904Z,3.82
2016-11-14T10:14:43.595Z,3.84
2016-11-14T10:15:52.288Z,3.77
2016-11-14T10:17:00.978Z,3.85
2016-11-14T10:18:09.673Z,3.91
2016-11-14T10:19:18.373Z,3.96
2016-11-14T10:20:27.064Z,3.81
2016-11-14T10:21:35.764Z,3.92
2016-11-14T10:22:44.472Z,3.88
2016-11-14T10:23:53.183Z,3.96
2016-11-14T10:25:02.188Z,3.89
2016-11-14T10:26:11.195Z,3.96
2016-11-14T10:27:19.893Z,3.91
2016-11-14T10:28:28.582Z,3.99
2016-11-14T10:29:37.278Z,4
2016-11-14T10:30:45.972Z,3.92
2016-11-14T10:31:54.735Z,3.91
2016-11-14T10:33:03.755Z,3.86
2016-11-14T10:34:12.472Z,3.76
2016-11-14T10:35:21.163Z,3.71
2016-11-14T10:36:29.857Z,3.55
2016-11-14T10:37:38.549Z,3.67
2016-11-14T10:38:47.241Z,3.64
2016-11-14T10:39:55.933Z,3.56
2016-11-14T10:41:04.623Z,3.58
2016-11-14T10:42:13.350Z,3.56
2016-11-14T10:43:22.040Z,3.56
2016-11-14T10:44:30.733Z,3.64
2016-11-14T10:45:39.425Z,3.61
2016-11-14T10:46:48.120Z,3.7
2016-11-14T10:47:56.828Z,3.58
2016-11-14T10:49:05.519Z,3.56
2016-11-14T10:50:14.222Z,3.59
2016-11-14T10:51:22.923Z,3.56
2016-11-14T10:52:31.619Z,3.56
2016-11-14T10:53:40.314Z,3.67
2016-11-14T10:54:49.002Z,3.56
2016-11-14T10:55:57.691Z,3.55
2016-11-14T10:57:06.386Z,3.61
2016-11-14T10:58:15.398Z,3.7
2016-11-14T10:59:24.095Z,3.63
2016-11-14T11:00:32.790Z,3.67
2016-11-14T11:01:41.482Z,3.67
2016-11-14T11:02:50.175Z,3.73
2016-11-14T11:03:58.868Z,3.74
2016-11-14T11:05:07.914Z,3.67
2016-11-14T11:06:16.608Z,3.67
2016-11-14T11:07:25.295Z,3.68
2016-11-14T11:08:33.983Z,3.68
2016-11-14T11:09:42.672Z,3.7
2016-11-14T11:10:51.762Z,3.61
2016-11-14T11:12:01.391Z,3.64
2016-11-14T11:13:10.083Z,3.61
2016-11-14T11:14:19.089Z,3.4
2016-11-14T11:15:28.138Z,3.33
2016-11-14T11:16:36.934Z,3.34
2016-11-14T11:17:45.633Z,3.22
2016-11-14T11:18:54.362Z,3.15
2016-11-14T11:20:03.378Z,3.12
2016-11-14T11:21:12.074Z,3.15
2016-11-14T11:22:20.769Z,3.22
2016-11-14T11:23:29.465Z,3.26
2016-11-14T11:24:38.162Z,3.22
2016-11-14T11:25:46.853Z,3.18
2016-11-14T11:26:55.882Z,3.27
2016-11-14T11:28:04.574Z,3.26
2016-11-14T11:29:13.266Z,3.29
2016-11-14T11:30:21.960Z,3.3
2016-11-14T11:31:30.653Z,3.21
2016-11-14T11:32:39.348Z,3.15
2016-11-14T11:33:48.043Z,3.22
2016-11-14T11:34:56.739Z,3.22
2016-11-14T11:36:05.432Z,3.22
2016-11-14T11:37:14.138Z,3.43
2016-11-14T11:38:22.830Z,3.41
2016-11-14T11:39:31.536Z,3.37
2016-11-14T11:40:40.233Z,3.37
2016-11-14T11:41:48.925Z,3.46
2016-11-14T11:42:57.620Z,3.48
2016-11-14T11:44:06.321Z,3.46
2016-11-14T11:45:15.045Z,3.45
2016-11-14T11:46:23.750Z,3.43
2016-11-14T11:47:32.439Z,3.45
2016-11-14T11:48:41.132Z,3.49
2016-11-14T11:49:49.824Z,3.31
2016-11-14T11:50:58.513Z,3.4
2016-11-14T11:52:07.206Z,3.41
2016-11-14T11:53:15.900Z,3.4
2016-11-14T11:54:24.593Z,3.43
2016-11-14T11:55:33.282Z,3.31
2016-11-14T11:56:41.975Z,3.33
2016-11-14T11:57:50.667Z,3.37
2016-11-14T11:58:59.357Z,3.46
2016-11-14T12:00:08.087Z,3.4
2016-11-14T12:01:16.782Z,3.36
2016-11-14T12:02:25.544Z,3.33
2016-11-14T12:03:34.236Z,3.33
2016-11-14T12:04:42.936Z,3.33
2016-11-14T12:05:51.636Z,3.37
2016-11-14T12:07:00.331Z,3.3
2016-11-14T12:08:09.030Z,3.3
2016-11-14T12:09:17.736Z,3.36
2016-11-14T12:10:26.431Z,3.33
2016-11-14T12:11:35.124Z,3.34
2016-11-14T12:12:43.816Z,3.24
2016-11-14T12:13:52.510Z,3.27
2016-11-14T12:15:01.204Z,3.31
2016-11-14T12:16:09.925Z,3.29
2016-11-14T12:17:18.663Z,3.33
2016-11-14T12:18:27.418Z,3.3
2016-11-14T12:19:36.117Z,3.36
2016-11-14T12:20:45.438Z,3.31
2016-11-14T12:21:54.128Z,3.29
2016-11-14T12:23:02.820Z,3.26
2016-11-14T12:24:11.511Z,3.31
2016-11-14T12:25:20.210Z,3.34
2016-11-14T12:26:29.092Z,3.45
2016-11-14T12:27:37.784Z,3.34
2016-11-14T12:28:46.479Z,3.33
2016-11-14T12:29:55.176Z,3.31
2016-11-14T12:31:03.873Z,3.33
2016-11-14T12:32:12.574Z,3.34
2016-11-14T12:33:21.263Z,3.34
2016-11-14T12:34:29.953Z,3.33
2016-11-14T12:35:38.685Z,3.4
2016-11-14T12:36:47.375Z,3.27
2016-11-14T12:37:56.077Z,3.27
2016-11-14T12:39:04.770Z,3.29
2016-11-14T12:40:13.479Z,3.22
2016-11-14T12:41:22.180Z,3.26
2016-11-14T12:42:30.873Z,3.24
2016-11-14T12:43:39.567Z,3.18
2016-11-14T12:44:48.258Z,3.3
2016-11-14T12:45:56.954Z,3.36
2016-11-14T12:47:05.977Z,3.3
2016-11-14T12:48:14.672Z,3.34
2016-11-14T12:49:23.379Z,3.3
2016-11-14T12:50:32.100Z,3.3
2016-11-14T12:51:40.796Z,3.37
2016-11-14T12:52:49.488Z,3.43
2016-11-14T12:53:58.183Z,3.34
2016-11-14T12:55:06.878Z,3.37
2016-11-14T12:56:15.601Z,3.34
2016-11-14T12:57:24.298Z,3.34
2016-11-14T12:58:32.996Z,3.33
2016-11-14T12:59:41.686Z,3.48
2016-11-14T13:00:50.380Z,3.4
2016-11-14T13:01:59.076Z,3.3
2016-11-14T13:03:07.767Z,3.34
2016-11-14T13:04:16.460Z,3.33
2016-11-14T13:05:25.153Z,3.31
2016-11-14T13:06:33.845Z,3.36
2016-11-14T13:07:42.548Z,3.3
2016-11-14T13:08:51.241Z,3.3
2016-11-14T13:09:59.936Z,3.3
2016-11-14T13:11:08.631Z,3.3
2016-11-14T13:12:17.329Z,3.4
2016-11-14T13:13:26.342Z,3.33
2016-11-14T13:14:35.038Z,3.37
2016-11-14T13:15:43.730Z,3.37
2016-11-14T13:16:52.424Z,3.41
2016-11-14T13:18:01.117Z,3.43
2016-11-14T13:19:09.810Z,3.41
2016-11-14T13:20:18.506Z,3.45
2016-11-14T13:21:27.199Z,3.46
2016-11-14T13:22:35.887Z,3.45
2016-11-14T13:23:44.587Z,3.55
2016-11-14T13:24:53.283Z,3.53
2016-11-14T13:26:01.975Z,3.55
2016-11-14T13:27:10.672Z,3.64
2016-11-14T13:28:19.361Z,3.61
2016-11-14T13:29:28.053Z,3.7
2016-11-14T13:30:36.752Z,3.74
2016-11-14T13:31:45.447Z,3.77
2016-11-14T13:32:54.135Z,3.78
2016-11-14T13:34:02.834Z,3.82
2016-11-14T13:35:11.522Z,3.91
2016-11-14T13:36:20.218Z,4
2016-11-14T13:37:28.910Z,3.94
2016-11-14T13:38:37.763Z,3.94
2016-11-14T13:39:46.809Z,4.06
2016-11-14T13:40:55.543Z,4.09
2016-11-14T13:42:04.238Z,4.16
2016-11-14T13:43:12.933Z,4.22
2016-11-14T13:44:21.629Z,4.21
2016-11-14T13:45:30.323Z,4.28
2016-11-14T13:46:39.021Z,4.42
2016-11-14T13:47:47.713Z,4.5
2016-11-14T13:48:56.409Z,4.43
2016-11-14T13:50:05.103Z,4.39
2016-11-14T13:51:13.797Z,4.48
2016-11-14T13:52:22.526Z,4.53
2016-11-14T13:53:31.527Z,4.49
2016-11-14T13:54:40.225Z,4.63
2016-11-14T13:55:48.917Z,4.63
2016-11-14T13:56:57.610Z,4.64
2016-11-14T13:58:06.299Z,4.83
2016-11-14T13:59:14.990Z,4.9
2016-11-14T14:00:23.736Z,4.92
2016-11-14T14:01:32.431Z,4.94
2016-11-14T14:02:41.129Z,5.04
2016-11-14T14:03:49.858Z,5.02
2016-11-14T14:04:58.551Z,5.08
2016-11-14T14:06:07.249Z,4.98
2016-11-14T14:07:15.939Z,5.1
2016-11-14T14:08:24.637Z,5.04
2016-11-14T14:09:33.335Z,5.05
2016-11-14T14:10:42.030Z,5.01
2016-11-14T14:11:50.722Z,5.01
2016-11-14T14:12:59.414Z,5.02
2016-11-14T14:14:08.105Z,5.01
2016-11-14T14:15:16.822Z,5.02
2016-11-14T14:16:25.517Z,4.92
2016-11-14T14:17:34.210Z,4.94
2016-11-14T14:18:43.287Z,4.92
2016-11-14T14:19:51.984Z,4.9
2016-11-14T14:21:00.675Z,4.95
2016-11-14T14:22:09.366Z,4.97
2016-11-14T14:23:18.093Z,4.95
2016-11-14T14:24:26.925Z,4.98
2016-11-14T14:25:35.615Z,5
2016-11-14T14:26:44.310Z,4.95
2016-11-14T14:27:52.996Z,4.87
2016-11-14T14:29:01.696Z,4.9
2016-11-14T14:30:10.386Z,4.97
2016-11-14T14:31:19.076Z,4.87
2016-11-14T14:32:27.769Z,4.86
2016-11-14T14:33:36.462Z,4.86
2016-11-14T14:34:45.152Z,4.79
2016-11-14T14:35:54.159Z,4.71
2016-11-14T14:37:03.166Z,4.78
2016-11-14T14:38:11.910Z,4.75
2016-11-14T14:39:20.603Z,4.79
2016-11-14T14:40:29.298Z,4.64
2016-11-14T14:41:37.995Z,4.6
2016-11-14T14:42:46.741Z,4.5
2016-11-14T14:43:55.783Z,4.4
2016-11-14T14:45:04.482Z,4.56
2016-11-14T14:46:13.180Z,4.38
2016-11-14T14:47:21.876Z,4.38
2016-11-14T14:48:30.578Z,4.38
2016-11-14T14:49:39.275Z,4.27
2016-11-14T14:50:47.969Z,4.18
2016-11-14T14:51:56.672Z,4.04
2016-11-14T14:53:05.363Z,3.94
2016-11-14T14:54:14.063Z,3.81
2016-11-14T14:55:22.753Z,3.71
2016-11-14T14:56:31.465Z,3.68
2016-11-14T14:57:40.160Z,3.56
2016-11-14T14:58:48.856Z,3.67
2016-11-14T14:59:57.554Z,3.55
2016-11-14T15:01:06.245Z,3.49
2016-11-14T15:02:14.953Z,3.55
2016-11-14T15:03:23.653Z,3.52
2016-11-14T15:04:32.344Z,3.5
2016-11-14T15:05:41.039Z,3.49
2016-11-14T15:06:49.730Z,3.4
2016-11-14T15:07:58.433Z,3.46
2016-11-14T15:09:07.442Z,3.3
2016-11-14T15:10:16.165Z,3.31
2016-11-14T15:11:24.859Z,3.3
2016-11-14T15:12:33.553Z,3.34
2016-11-14T15:13:42.925Z,3.37
2016-11-14T15:14:51.623Z,3.34
2016-11-14T15:16:00.312Z,3.27
2016-11-14T15:17:09.116Z,3.34
2016-11-14T15:18:18.612Z,3.34
2016-11-14T15:19:27.495Z,3.34